createdAt,value
2018-03-30T00:00:50.502Z,1.30
2018-03-30T00:03:18.168Z,1.30
2018-03-30T00:05:45.775Z,1.30
2018-03-30T00:08:13.327Z,1.20
2018-03-30T00:10:46.865Z,1.20
2018-03-30T00:13:15.176Z,1.20
2018-03-30T00:15:43.501Z,1.10
2018-03-30T00:18:11.181Z,1.20
2018-03-30T00:20:38.715Z,1.10
2018-03-30T00:23:07.035Z,1.00
2018-03-30T00:25:34.610Z,1.00
2018-03-30T00:28:02.147Z,1.00
2018-03-30T00:30:30.462Z,0.90
2018-03-30T00:32:58.027Z,0.90
2018-03-30T00:35:25.565Z,0.90
2018-03-30T00:37:53.862Z,0.80
2018-03-30T00:40:22.202Z,0.80
2018-03-30T00:42:49.758Z,0.70
2018-03-30T00:45:17.327Z,0.80
2018-03-30T00:47:44.882Z,0.80
2018-03-30T00:50:12.442Z,0.80
2018-03-30T00:52:40.790Z,0.70
2018-03-30T00:55:08.334Z,0.70
2018-03-30T00:57:35.883Z,0.70
2018-03-30T01:00:03.418Z,0.70
2018-03-30T01:02:30.990Z,0.80
2018-03-30T01:04:58.625Z,0.80
2018-03-30T01:07:26.159Z,0.80
2018-03-30T01:09:54.574Z,0.80
2018-03-30T01:12:22.144Z,0.70
2018-03-30T01:14:49.722Z,0.70
2018-03-30T01:17:17.340Z,0.70
2018-03-30T01:19:44.865Z,0.70
2018-03-30T01:22:12.390Z,0.70
2018-03-30T01:24:40.015Z,0.60
2018-03-30T01:27:07.546Z,0.70
2018-03-30T01:29:35.841Z,0.70
2018-03-30T01:32:04.183Z,0.60
2018-03-30T01:34:31.725Z,0.60
2018-03-30T01:36:59.262Z,0.60
2018-03-30T01:39:27.790Z,0.60
2018-03-30T01:41:55.346Z,0.60
2018-03-30T01:44:22.872Z,0.60
2018-03-30T01:46:51.950Z,0.60
2018-03-30T01:49:19.478Z,0.60
2018-03-30T01:51:47.078Z,0.50
2018-03-30T01:54:14.642Z,0.50
2018-03-30T01:56:42.173Z,0.50
2018-03-30T01:59:09.698Z,0.50
2018-03-30T02:01:37.466Z,0.50
2018-03-30T02:04:05.040Z,0.50
2018-03-30T02:06:32.566Z,0.50
2018-03-30T02:09:00.138Z,0.50
2018-03-30T02:11:27.750Z,0.50
2018-03-30T02:13:55.326Z,0.50
2018-03-30T02:16:22.894Z,0.50
2018-03-30T02:18:50.432Z,0.50
2018-03-30T02:21:18.723Z,0.50
2018-03-30T02:23:47.249Z,0.40
2018-03-30T02:26:14.778Z,0.40
2018-03-30T02:28:43.087Z,0.40
2018-03-30T02:31:10.678Z,0.40
2018-03-30T02:33:38.292Z,0.40
2018-03-30T02:36:05.915Z,0.40
2018-03-30T02:38:33.845Z,0.40
2018-03-30T02:41:01.454Z,0.40
2018-03-30T02:43:29.126Z,0.40
2018-03-30T02:45:56.788Z,0.30
2018-03-30T02:48:25.177Z,0.30
2018-03-30T02:50:53.561Z,0.30
2018-03-30T02:53:21.997Z,0.30
2018-03-30T02:55:49.656Z,0.30
2018-03-30T02:58:17.275Z,0.30
2018-03-30T03:00:45.096Z,0.30
2018-03-30T03:03:12.717Z,0.20
2018-03-30T03:05:40.448Z,0.30
2018-03-30T03:08:08.134Z,0.20
2018-03-30T03:10:35.756Z,0.30
2018-03-30T03:13:04.185Z,0.30
2018-03-30T03:15:31.987Z,0.20
2018-03-30T03:17:59.612Z,0.20
2018-03-30T03:20:27.995Z,0.20
2018-03-30T03:22:56.523Z,0.20
2018-03-30T03:25:24.146Z,0.20
2018-03-30T03:27:51.760Z,0.20
2018-03-30T03:30:19.545Z,0.20
2018-03-30T03:32:47.159Z,0.20
2018-03-30T03:35:14.771Z,0.20
2018-03-30T03:37:42.435Z,0.20
2018-03-30T03:40:10.811Z,0.20
2018-03-30T03:42:39.204Z,0.20
2018-03-30T03:45:07.673Z,0.20
2018-03-30T03:47:35.294Z,0.20
2018-03-30T03:50:02.943Z,0.30
2018-03-30T03:52:31.578Z,0.20
2018-03-30T03:54:59.242Z,0.20
2018-03-30T03:57:26.955Z,0.20
2018-03-30T03:59:54.621Z,0.20
2018-03-30T04:02:22.238Z,0.20
2018-03-30T04:04:50.655Z,0.20
2018-03-30T04:07:18.319Z,0.20
2018-03-30T04:09:45.951Z,0.20
2018-03-30T04:12:13.686Z,0.30
2018-03-30T04:14:41.357Z,0.20
2018-03-30T04:17:09.043Z,0.20
2018-03-30T04:19:36.731Z,0.20
2018-03-30T04:22:04.495Z,0.20
2018-03-30T04:24:32.108Z,0.20
2018-03-30T04:26:59.856Z,0.30
2018-03-30T04:29:27.708Z,0.30
2018-03-30T04:31:55.327Z,0.20
2018-03-30T04:34:22.943Z,0.20
2018-03-30T04:36:50.615Z,0.20
2018-03-30T04:39:18.309Z,0.20
2018-03-30T04:41:45.927Z,0.20
2018-03-30T04:44:13.582Z,0.20
2018-03-30T04:46:41.211Z,0.20
2018-03-30T04:49:08.830Z,0.30
2018-03-30T04:51:36.564Z,0.30
2018-03-30T04:54:04.174Z,0.20
2018-03-30T04:56:31.799Z,0.20
2018-03-30T04:58:59.582Z,0.20
2018-03-30T05:01:27.194Z,0.30
2018-03-30T05:03:54.879Z,0.20
2018-03-30T05:06:22.721Z,0.30
2018-03-30T05:08:50.342Z,0.30
2018-03-30T05:11:17.956Z,0.30
2018-03-30T05:13:45.615Z,0.30
2018-03-30T05:16:13.238Z,0.30
2018-03-30T05:18:40.873Z,0.30
2018-03-30T05:21:08.538Z,0.40
2018-03-30T05:23:36.221Z,0.40
2018-03-30T05:26:03.840Z,0.40
2018-03-30T05:28:31.563Z,0.40
2018-03-30T05:30:59.179Z,0.50
2018-03-30T05:33:26.928Z,0.60
2018-03-30T05:35:54.611Z,0.60
2018-03-30T05:38:22.272Z,0.60
2018-03-30T05:40:49.964Z,0.70
2018-03-30T05:43:17.643Z,0.60
2018-03-30T05:45:45.275Z,0.70
2018-03-30T05:48:12.896Z,1.00
2018-03-30T05:50:40.659Z,1.50
2018-03-30T05:53:08.302Z,2.00
2018-03-30T05:55:35.939Z,2.40
2018-03-30T05:58:03.722Z,2.70
2018-03-30T06:00:32.257Z,3.10
2018-03-30T06:02:59.934Z,3.10
2018-03-30T06:05:27.595Z,3.20
2018-03-30T06:07:55.211Z,3.40
2018-03-30T06:10:22.842Z,3.80
2018-03-30T06:12:50.615Z,4.30
2018-03-30T06:15:18.302Z,4.80
2018-03-30T06:17:45.922Z,5.00
2018-03-30T06:20:15.496Z,5.00
2018-03-30T06:22:43.110Z,5.10
2018-03-30T06:25:10.730Z,5.00
2018-03-30T06:27:38.400Z,5.10
2018-03-30T06:30:06.015Z,5.20
2018-03-30T06:32:33.634Z,5.20
2018-03-30T06:35:01.403Z,4.90
2018-03-30T06:37:29.811Z,5.20
2018-03-30T06:39:57.442Z,5.20
2018-03-30T06:42:25.164Z,5.30
2018-03-30T06:44:52.793Z,5.80
2018-03-30T06:47:20.503Z,6.00
2018-03-30T06:49:48.179Z,6.00
2018-03-30T06:52:15.795Z,5.40
2018-03-30T06:54:43.410Z,4.60
2018-03-30T06:57:11.933Z,4.10
2018-03-30T06:59:39.605Z,4.10
2018-03-30T07:02:07.235Z,4.20
2018-03-30T07:04:35.659Z,4.20
2018-03-30T07:07:03.271Z,4.20
2018-03-30T07:09:30.897Z,4.10
2018-03-30T07:11:58.576Z,4.00
2018-03-30T07:14:26.194Z,3.70
2018-03-30T07:16:53.956Z,3.40
2018-03-30T07:19:21.632Z,3.30
2018-03-30T07:21:49.267Z,3.30
2018-03-30T07:24:24.316Z,3.20
2018-03-30T07:26:52.181Z,3.40
2018-03-30T07:29:20.562Z,3.70
2018-03-30T07:31:48.943Z,3.90
2018-03-30T07:34:16.606Z,3.90
2018-03-30T07:36:44.241Z,4.00
2018-03-30T07:39:11.855Z,3.70
2018-03-30T07:41:41.029Z,3.60
2018-03-30T07:44:08.659Z,3.60
2018-03-30T07:46:37.043Z,3.30
2018-03-30T07:49:05.491Z,3.40
2018-03-30T07:51:33.108Z,3.40
2018-03-30T07:54:01.574Z,3.50
2018-03-30T07:56:29.422Z,3.50
2018-03-30T07:58:57.061Z,3.60
2018-03-30T08:01:25.446Z,4.30
2018-03-30T08:03:53.879Z,4.60
2018-03-30T08:06:21.534Z,4.50
2018-03-30T08:08:49.159Z,4.30
2018-03-30T08:11:16.888Z,4.20
2018-03-30T08:13:44.506Z,4.20
2018-03-30T08:16:12.223Z,4.50
2018-03-30T08:18:39.900Z,4.60
2018-03-30T08:21:07.603Z,4.60
2018-03-30T08:23:35.233Z,4.20
2018-03-30T08:26:03.692Z,4.00
2018-03-30T08:28:31.424Z,4.00
2018-03-30T08:30:59.108Z,3.90
2018-03-30T08:33:26.890Z,4.10
2018-03-30T08:35:54.511Z,4.30
2018-03-30T08:38:22.128Z,4.40
2018-03-30T08:40:49.903Z,4.50
2018-03-30T08:43:17.525Z,4.70
2018-03-30T08:45:45.194Z,4.90
2018-03-30T08:48:12.846Z,5.00
2018-03-30T08:50:40.469Z,5.00
2018-03-30T08:53:08.151Z,5.00
2018-03-30T08:55:35.863Z,4.90
2018-03-30T08:58:03.491Z,4.90
2018-03-30T09:00:31.916Z,5.60
2018-03-30T09:02:59.679Z,5.50
2018-03-30T09:05:27.295Z,6.00
2018-03-30T09:07:54.923Z,6.10
2018-03-30T09:10:22.686Z,5.70
2018-03-30T09:12:50.313Z,5.50
2018-03-30T09:15:17.934Z,5.30
2018-03-30T09:17:45.614Z,5.10
2018-03-30T09:20:13.242Z,5.20
2018-03-30T09:22:40.868Z,5.40
2018-03-30T09:25:08.646Z,5.50
2018-03-30T09:27:36.261Z,5.50
2018-03-30T09:30:03.875Z,5.40
2018-03-30T09:32:31.544Z,5.50
2018-03-30T09:34:59.235Z,5.60
2018-03-30T09:37:26.851Z,5.40
2018-03-30T09:39:54.511Z,5.40
2018-03-30T09:44:46.404Z,5.80
2018-03-30T09:47:15.047Z,6.00
2018-03-30T09:49:42.668Z,6.10
2018-03-30T09:52:10.299Z,6.20
2018-03-30T09:54:37.951Z,6.20
2018-03-30T09:57:05.569Z,6.10
2018-03-30T09:59:33.221Z,6.50
2018-03-30T10:02:01.017Z,6.80
2018-03-30T10:04:28.644Z,6.60
2018-03-30T10:06:56.269Z,6.30
2018-03-30T10:09:24.341Z,6.20
2018-03-30T10:11:51.960Z,6.50
2018-03-30T10:16:55.246Z,6.70
2018-03-30T10:19:22.867Z,6.50
2018-03-30T10:21:51.266Z,6.60
2018-03-30T10:24:18.923Z,6.50
2018-03-30T10:26:47.383Z,5.90
2018-03-30T10:29:15.016Z,6.00
2018-03-30T10:31:42.784Z,6.00
2018-03-30T10:34:10.418Z,6.20
2018-03-30T10:36:38.031Z,6.10
2018-03-30T10:39:05.707Z,6.00
2018-03-30T10:41:33.330Z,5.80
2018-03-30T10:44:00.943Z,5.60
2018-03-30T10:46:28.702Z,5.50
2018-03-30T10:48:57.095Z,5.70
2018-03-30T10:51:25.482Z,5.70
2018-03-30T10:53:53.915Z,5.90
2018-03-30T10:56:21.556Z,5.90
2018-03-30T10:58:49.935Z,6.50
2018-03-30T11:01:18.421Z,6.70
2018-03-30T11:03:46.063Z,6.70
2018-03-30T11:06:13.676Z,6.80
2018-03-30T11:08:42.211Z,7.10
2018-03-30T11:11:09.827Z,7.10
2018-03-30T11:13:37.444Z,7.10
2018-03-30T11:16:05.120Z,7.10
2018-03-30T11:18:32.738Z,7.20
2018-03-30T11:21:00.362Z,7.20
2018-03-30T11:23:28.123Z,7.10
2018-03-30T11:25:55.738Z,7.00
2018-03-30T11:28:23.366Z,7.20
2018-03-30T11:30:51.023Z,7.10
2018-03-30T11:33:19.407Z,6.80
2018-03-30T11:35:47.028Z,6.80
2018-03-30T11:38:14.859Z,6.80
2018-03-30T11:40:43.251Z,6.50
2018-03-30T11:43:10.893Z,6.50
2018-03-30T11:45:39.008Z,6.90
2018-03-30T11:48:07.459Z,7.50
2018-03-30T11:50:35.087Z,7.50
2018-03-30T11:53:03.536Z,7.90
2018-03-30T11:55:31.154Z,7.90
2018-03-30T11:57:59.528Z,8.00
2018-03-30T12:00:27.954Z,7.80
2018-03-30T12:02:55.579Z,7.70
2018-03-30T12:05:23.202Z,7.50
2018-03-30T12:07:50.879Z,7.30
2018-03-30T12:10:18.497Z,7.30
2018-03-30T12:12:46.127Z,7.50
2018-03-30T12:15:13.918Z,7.60
2018-03-30T12:17:41.572Z,7.70
2018-03-30T12:20:09.197Z,7.70
2018-03-30T12:22:36.975Z,7.90
2018-03-30T12:25:04.599Z,7.80
2018-03-30T12:27:32.225Z,7.90
2018-03-30T12:30:00.746Z,7.80
2018-03-30T12:32:28.366Z,7.80
2018-03-30T12:34:56.014Z,7.80
2018-03-30T12:37:23.684Z,8.00
2018-03-30T12:39:51.315Z,8.20
2018-03-30T12:42:19.700Z,8.40
2018-03-30T12:44:47.453Z,8.40
2018-03-30T12:47:15.104Z,8.20
2018-03-30T12:49:42.729Z,8.20
2018-03-30T12:52:11.172Z,8.20
2018-03-30T12:54:38.790Z,8.20
2018-03-30T12:57:07.326Z,8.20
2018-03-30T12:59:35.012Z,8.20
2018-03-30T13:02:02.631Z,8.20
2018-03-30T13:04:30.292Z,8.30
2018-03-30T13:06:57.946Z,8.30
2018-03-30T13:09:25.584Z,8.20
2018-03-30T13:11:53.194Z,8.20
2018-03-30T13:14:20.864Z,8.20
2018-03-30T13:16:48.484Z,8.20
2018-03-30T13:19:16.103Z,8.30
2018-03-30T13:21:43.863Z,8.20
2018-03-30T13:24:11.611Z,8.20
2018-03-30T13:26:39.235Z,8.20
2018-03-30T13:29:06.911Z,8.10
2018-03-30T13:31:34.528Z,8.20
2018-03-30T13:34:02.921Z,8.10
2018-03-30T13:36:31.523Z,8.10
2018-03-30T13:38:59.206Z,8.10
2018-03-30T13:41:26.882Z,8.20
2018-03-30T13:43:54.770Z,8.40
2018-03-30T13:46:22.403Z,8.30
2018-03-30T13:48:50.783Z,8.30
2018-03-30T13:51:21.379Z,8.30
2018-03-30T13:53:52.639Z,8.20
2018-03-30T13:56:24.788Z,8.40
2018-03-30T13:59:00.652Z,8.40
2018-03-30T14:01:29.091Z,8.40
2018-03-30T14:04:05.959Z,8.30
2018-03-30T14:06:39.083Z,8.20
2018-03-30T14:09:33.033Z,8.30
2018-03-30T14:12:03.479Z,8.40
2018-03-30T14:14:31.095Z,8.40
2018-03-30T14:19:55.140Z,8.20
2018-03-30T14:22:34.183Z,8.00
2018-03-30T14:25:02.564Z,8.10
2018-03-30T14:27:32.653Z,8.10
2018-03-30T14:30:12.208Z,8.10
2018-03-30T14:35:37.863Z,8.20
2018-03-30T14:38:15.109Z,8.20
2018-03-30T14:40:44.776Z,8.20
2018-03-30T14:43:17.223Z,8.20
2018-03-30T14:45:49.238Z,8.20
2018-03-30T14:48:21.247Z,8.20
2018-03-30T14:54:03.023Z,8.10
2018-03-30T14:56:41.393Z,8.30
2018-03-30T15:02:20.261Z,8.30
2018-03-30T15:04:55.223Z,8.30
2018-03-30T15:07:26.335Z,8.20
2018-03-30T15:10:02.551Z,8.10
2018-03-30T15:12:32.230Z,8.10
2018-03-30T15:18:12.056Z,8.00
2018-03-30T15:20:43.222Z,8.10
2018-03-30T15:23:12.353Z,8.10
2018-03-30T15:25:44.568Z,8.10
2018-03-30T15:28:14.732Z,8.10
2018-03-30T15:33:52.161Z,8.20
2018-03-30T15:36:30.608Z,8.20
2018-03-30T15:38:58.383Z,8.20
2018-03-30T15:41:26.021Z,8.10
2018-03-30T15:43:53.668Z,8.10
2018-03-30T15:46:25.029Z,8.10
2018-03-30T15:48:53.430Z,8.10
2018-03-30T15:51:26.295Z,8.10
2018-03-30T15:53:53.415Z,8.10
2018-03-30T15:56:21.041Z,8.00
2018-03-30T15:58:49.473Z,7.90
2018-03-30T16:01:17.136Z,7.90
2018-03-30T16:03:44.755Z,7.90
2018-03-30T16:06:12.427Z,7.90
2018-03-30T16:08:40.039Z,7.90
2018-03-30T16:14:05.124Z,7.80
2018-03-30T16:16:32.796Z,7.80
2018-03-30T16:18:59.952Z,7.80
2018-03-30T16:21:27.071Z,7.80
2018-03-30T16:23:55.010Z,7.70
2018-03-30T16:26:22.143Z,7.70
2018-03-30T16:28:49.264Z,7.80
2018-03-30T16:31:16.535Z,7.70
2018-03-30T16:33:44.427Z,7.60
2018-03-30T16:36:12.374Z,7.50
2018-03-30T16:38:39.559Z,7.50
2018-03-30T16:41:07.455Z,7.50
2018-03-30T16:43:35.346Z,7.50
2018-03-30T16:46:02.527Z,7.40
2018-03-30T16:48:29.649Z,7.40
2018-03-30T16:50:57.542Z,7.40
2018-03-30T16:53:24.718Z,7.30
2018-03-30T16:55:51.867Z,7.40
2018-03-30T16:58:19.002Z,7.30
2018-03-30T17:00:46.960Z,7.30
2018-03-30T17:03:14.089Z,7.30
2018-03-30T17:05:41.206Z,7.30
2018-03-30T17:08:09.247Z,7.20
2018-03-30T17:10:36.397Z,7.20
2018-03-30T17:13:03.531Z,7.10
2018-03-30T17:15:30.798Z,7.10
2018-03-30T17:17:57.984Z,7.10
2018-03-30T17:20:25.167Z,7.10
2018-03-30T17:22:52.332Z,7.00
2018-03-30T17:25:19.454Z,7.00
2018-03-30T17:27:46.729Z,6.90
2018-03-30T17:30:13.903Z,6.80
2018-03-30T17:32:41.035Z,6.80
2018-03-30T17:35:08.152Z,6.70
2018-03-30T17:37:35.327Z,6.70
2018-03-30T17:40:02.480Z,6.60
2018-03-30T17:42:29.706Z,6.60
2018-03-30T17:44:56.871Z,6.60
2018-03-30T17:47:23.994Z,6.50
2018-03-30T17:49:51.886Z,6.40
2018-03-30T17:52:19.199Z,6.40
2018-03-30T17:54:46.360Z,6.40
2018-03-30T17:57:13.745Z,6.40
2018-03-30T17:59:40.923Z,6.30
2018-03-30T18:02:08.123Z,6.30
2018-03-30T18:04:35.264Z,6.20
2018-03-30T18:07:03.199Z,6.20
2018-03-30T18:09:30.323Z,6.10
2018-03-30T18:11:57.455Z,6.10
2018-03-30T18:14:25.579Z,6.10
2018-03-30T18:16:52.851Z,6.10
2018-03-30T18:19:20.115Z,6.00
2018-03-30T18:21:47.359Z,6.00
2018-03-30T18:24:14.502Z,6.00
2018-03-30T18:26:42.399Z,5.80
2018-03-30T18:29:09.576Z,5.80
2018-03-30T18:31:36.950Z,5.80
2018-03-30T18:34:04.196Z,5.80
2018-03-30T18:36:31.367Z,5.80
2018-03-30T18:38:58.497Z,5.70
2018-03-30T18:41:26.395Z,5.60
2018-03-30T18:43:53.762Z,5.60
2018-03-30T18:46:20.902Z,5.60
2018-03-30T18:48:48.798Z,5.50
2018-03-30T18:51:16.001Z,5.50
2018-03-30T18:53:43.232Z,5.50
2018-03-30T18:56:10.361Z,5.50
2018-03-30T18:58:38.311Z,5.40
2018-03-30T19:01:05.566Z,5.40
2018-03-30T19:03:32.694Z,5.40
2018-03-30T19:06:00.078Z,5.30
2018-03-30T19:08:27.261Z,5.30
2018-03-30T19:10:54.383Z,5.30
2018-03-30T19:13:21.857Z,5.30
2018-03-30T19:15:48.986Z,5.20
2018-03-30T19:18:16.882Z,5.20
2018-03-30T19:20:44.089Z,5.20
2018-03-30T19:23:11.217Z,5.20
2018-03-30T19:25:38.794Z,5.10
2018-03-30T19:28:05.966Z,5.10
2018-03-30T19:30:33.094Z,5.10
2018-03-30T19:33:01.065Z,5.00
2018-03-30T19:35:29.271Z,5.00
2018-03-30T19:37:56.425Z,5.00
2018-03-30T19:40:24.422Z,4.90
2018-03-30T19:42:51.908Z,4.90
2018-03-30T19:45:19.043Z,4.90
2018-03-30T19:47:46.175Z,4.90
2018-03-30T19:50:13.392Z,4.90
2018-03-30T19:52:40.545Z,5.00
2018-03-30T19:55:07.672Z,5.00
2018-03-30T19:57:35.617Z,4.90
2018-03-30T20:00:02.745Z,4.90
2018-03-30T20:02:29.943Z,4.90
2018-03-30T20:04:57.275Z,4.90
2018-03-30T20:07:24.402Z,4.50
2018-03-30T20:09:52.314Z,4.80
2018-03-30T20:12:19.580Z,4.70
2018-03-30T20:14:46.739Z,4.70
2018-03-30T20:17:14.031Z,4.70
2018-03-30T20:19:41.267Z,4.60
2018-03-30T20:22:08.422Z,4.60
2018-03-30T20:24:35.572Z,4.60
2018-03-30T20:27:03.821Z,4.50
2018-03-30T20:29:31.055Z,4.50
2018-03-30T20:31:58.330Z,4.50
2018-03-30T20:34:25.559Z,4.50
2018-03-30T20:36:52.679Z,4.50
2018-03-30T20:39:20.571Z,4.50
2018-03-30T20:41:47.802Z,4.50
2018-03-30T20:44:15.163Z,4.50
2018-03-30T20:46:42.404Z,4.50
2018-03-30T20:49:09.575Z,4.50
2018-03-30T20:51:36.702Z,4.40
2018-03-30T20:54:04.594Z,4.40
2018-03-30T20:56:31.789Z,4.40
2018-03-30T20:58:58.943Z,4.40
2018-03-30T21:01:26.075Z,4.40
2018-03-30T21:03:53.238Z,4.40
2018-03-30T21:06:20.512Z,4.40
2018-03-30T21:08:47.643Z,4.40
2018-03-30T21:11:15.583Z,4.40
2018-03-30T21:13:42.728Z,4.40
2018-03-30T21:16:09.862Z,4.40
2018-03-30T21:18:37.245Z,4.40
2018-03-30T21:21:04.391Z,4.40
2018-03-30T21:23:32.296Z,4.40
2018-03-30T21:25:59.648Z,4.30
2018-03-30T21:28:26.782Z,4.40
2018-03-30T21:30:54.705Z,4.30
2018-03-30T21:33:21.947Z,4.30
2018-03-30T21:35:49.112Z,4.30
2018-03-30T21:38:16.246Z,4.30
2018-03-30T21:40:44.190Z,4.30
2018-03-30T21:43:11.335Z,4.30
2018-03-30T21:45:38.492Z,4.30
2018-03-30T21:48:05.859Z,4.30
2018-03-30T21:50:32.987Z,4.30
2018-03-30T21:53:00.875Z,4.30
2018-03-30T21:55:28.043Z,4.20
2018-03-30T21:57:55.183Z,4.20
2018-03-30T22:00:23.076Z,4.20
2018-03-30T22:02:50.344Z,4.20
2018-03-30T22:05:17.467Z,4.20
2018-03-30T22:07:44.586Z,4.20
2018-03-30T22:10:11.754Z,4.20
2018-03-30T22:12:38.875Z,4.20
2018-03-30T22:15:06.815Z,4.10
2018-03-30T22:17:33.990Z,4.10
2018-03-30T22:20:01.317Z,4.10
2018-03-30T22:22:28.436Z,4.10
2018-03-30T22:24:56.459Z,4.00
2018-03-30T22:27:23.628Z,4.00
2018-03-30T22:29:50.767Z,4.00
2018-03-30T22:32:17.967Z,3.90
2018-03-30T22:34:45.123Z,3.90
2018-03-30T22:37:12.279Z,3.90
2018-03-30T22:39:39.515Z,3.80
2018-03-30T22:42:06.638Z,3.80
2018-03-30T22:44:33.845Z,3.80
2018-03-30T22:47:01.034Z,3.80
2018-03-30T22:49:28.158Z,3.70
2018-03-30T22:51:55.328Z,3.70
2018-03-30T22:54:22.695Z,3.70
2018-03-30T22:56:49.815Z,3.70
2018-03-30T22:59:17.007Z,3.70
2018-03-30T23:01:44.326Z,3.60
2018-03-30T23:04:11.459Z,3.60
2018-03-30T23:06:38.719Z,3.60
2018-03-30T23:09:05.984Z,3.60
2018-03-30T23:11:33.102Z,3.60
2018-03-30T23:14:01.025Z,3.50
2018-03-30T23:16:28.199Z,3.50
2018-03-30T23:18:55.383Z,3.40
2018-03-30T23:21:22.619Z,3.40
2018-03-30T23:23:50.083Z,3.40
2018-03-30T23:26:17.211Z,3.40
2018-03-30T23:28:45.207Z,3.40
2018-03-30T23:31:12.380Z,3.30
2018-03-30T23:33:39.511Z,3.40
2018-03-30T23:36:07.405Z,3.30
2018-03-30T23:38:34.690Z,3.30
2018-03-30T23:41:01.954Z,3.30
2018-03-30T23:43:29.072Z,3.30
2018-03-30T23:45:57.188Z,3.30
2018-03-30T23:48:24.442Z,3.30
2018-03-30T23:50:51.611Z,3.30
2018-03-30T23:53:18.785Z,3.30
2018-03-30T23:55:45.919Z,3.30
2018-03-30T23:58:13.097Z,3.30
